createdAt,value
2022-10-22T00:05:18.637Z,995.15
2022-10-22T00:15:24.424Z,995.13
2022-10-22T00:25:30.847Z,995.27
2022-10-22T00:35:37.138Z,995.21
2022-10-22T00:45:44.444Z,995.29
2022-10-22T00:55:50.220Z,995.28
2022-10-22T01:05:58.161Z,995.40
2022-10-22T01:16:04.637Z,995.32
2022-10-22T01:26:11.105Z,995.34
2022-10-22T01:36:17.272Z,995.16
2022-10-22T01:46:24.922Z,995.18
2022-10-22T01:56:30.580Z,995.00
2022-10-22T02:06:38.162Z,994.89
2022-10-22T02:16:43.613Z,994.73
2022-10-22T02:26:51.898Z,994.64
2022-10-22T02:36:58.030Z,994.67
2022-10-22T02:47:06.036Z,994.72
2022-10-22T02:57:11.793Z,994.85
2022-10-22T03:07:19.871Z,995.08
2022-10-22T03:17:26.245Z,995.11
2022-10-22T03:27:33.479Z,995.03
2022-10-22T03:37:39.301Z,994.93
2022-10-22T03:47:46.624Z,995.13
2022-10-22T03:57:52.416Z,995.12
2022-10-22T04:08:00.541Z,995.34
2022-10-22T04:18:06.978Z,995.44
2022-10-22T04:28:14.434Z,995.47
2022-10-22T04:38:20.095Z,995.47
2022-10-22T04:48:28.235Z,995.61
2022-10-22T04:58:34.732Z,995.59
2022-10-22T05:08:41.168Z,995.88
2022-10-22T05:18:47.556Z,995.87
2022-10-22T05:28:55.527Z,996.09
2022-10-22T05:39:01.590Z,995.85
2022-10-22T05:49:09.723Z,996.11
2022-10-22T05:59:15.341Z,996.23
2022-10-22T06:09:23.683Z,996.52
2022-10-22T06:19:30.372Z,996.76
2022-10-22T06:31:08.732Z,996.92
2022-10-22T06:41:12.910Z,996.99
2022-10-22T06:51:20.951Z,997.03
2022-10-22T07:01:27.138Z,997.01
2022-10-22T07:11:33.234Z,997.33
2022-10-22T07:21:39.437Z,997.47
2022-10-22T07:31:45.534Z,997.46
2022-10-22T07:41:51.494Z,997.78
2022-10-22T07:51:59.525Z,997.80
2022-10-22T08:02:05.157Z,997.75
2022-10-22T08:12:12.733Z,997.39
2022-10-22T08:22:18.428Z,997.27
2022-10-22T08:42:33.652Z,998.12
2022-10-22T08:52:41.222Z,998.04
2022-10-22T09:02:47.504Z,997.98
2022-10-22T09:12:56.099Z,998.20
2022-10-22T09:23:02.323Z,998.21
2022-10-22T09:33:10.124Z,998.18
2022-10-22T09:43:16.024Z,998.19
2022-10-22T09:53:23.499Z,998.27
2022-10-22T10:03:29.576Z,998.36
2022-10-22T10:13:36.095Z,998.33
2022-10-22T10:23:42.578Z,998.41
2022-10-22T10:33:50.418Z,998.39
2022-10-22T10:43:56.480Z,998.48
2022-10-22T10:54:03.172Z,998.50
2022-10-22T11:04:09.248Z,998.55
2022-10-22T11:14:15.477Z,998.65
2022-10-22T11:24:21.520Z,998.66
2022-10-22T11:34:33.577Z,998.60
2022-10-22T11:44:39.720Z,998.68
2022-10-22T11:54:47.641Z,998.75
2022-10-22T12:04:53.646Z,998.73
2022-10-22T12:15:01.543Z,998.65
2022-10-22T12:25:07.345Z,998.55
2022-10-22T12:35:15.610Z,998.52
2022-10-22T12:45:21.730Z,998.44
2022-10-22T12:55:29.318Z,998.48
2022-10-22T13:05:35.217Z,998.53
2022-10-22T13:15:41.789Z,998.47
2022-10-22T13:25:48.448Z,998.46
2022-10-22T13:35:54.891Z,998.45
2022-10-22T13:46:01.037Z,998.39
2022-10-22T13:56:09.202Z,998.35
2022-10-22T14:06:15.108Z,998.46
2022-10-22T14:16:23.848Z,998.52
2022-10-22T14:26:30.247Z,998.57
2022-10-22T14:36:36.501Z,998.53
2022-10-22T14:46:43.333Z,998.60
2022-10-22T14:56:49.456Z,998.76
2022-10-22T15:06:55.415Z,998.76
2022-10-22T15:17:03.390Z,998.77
2022-10-22T15:27:09.620Z,998.86
2022-10-22T15:37:16.079Z,998.92
2022-10-22T15:47:22.000Z,999.18
2022-10-22T15:57:28.238Z,999.34
2022-10-22T16:07:34.270Z,999.34
2022-10-22T16:17:41.738Z,999.42
2022-10-22T16:27:46.502Z,999.59
2022-10-22T16:37:53.906Z,999.79
2022-10-22T16:47:59.420Z,999.98
2022-10-22T16:58:06.939Z,1000.06
2022-10-22T17:08:12.610Z,1000.26
2022-10-22T17:18:20.558Z,1000.25
2022-10-22T17:28:26.202Z,1000.29
2022-10-22T17:38:33.758Z,1000.40
2022-10-22T17:48:40.120Z,1000.45
2022-10-22T17:58:48.003Z,1000.53
2022-10-22T18:19:01.048Z,1000.52
2022-10-22T18:29:06.942Z,1000.44
2022-10-22T18:39:14.841Z,1000.56
2022-10-22T18:49:20.458Z,1000.53
2022-10-22T18:59:27.783Z,1000.63
2022-10-22T19:09:32.811Z,1000.73
2022-10-22T19:19:40.533Z,1000.82
2022-10-22T19:29:46.187Z,1000.84
2022-10-22T19:39:53.848Z,1000.93
2022-10-22T19:49:59.496Z,1000.97
2022-10-22T20:00:07.408Z,1001.13
2022-10-22T20:10:13.204Z,1001.26
2022-10-22T20:20:23.073Z,1001.41
2022-10-22T20:30:31.535Z,1001.46
2022-10-22T20:40:39.580Z,1001.53
2022-10-22T20:50:45.609Z,1001.46
2022-10-22T21:00:53.448Z,1001.42
2022-10-22T21:10:59.406Z,1001.33
2022-10-22T21:21:06.684Z,1001.33
2022-10-22T21:31:12.660Z,1001.32
2022-10-22T21:41:19.724Z,1001.39
2022-10-22T21:51:25.340Z,1001.38
2022-10-22T22:01:32.493Z,1001.48
2022-10-22T22:11:38.645Z,1001.58
2022-10-22T22:21:45.670Z,1001.67
2022-10-22T22:31:51.300Z,1001.60
2022-10-22T22:41:58.903Z,1001.64
2022-10-22T22:52:04.850Z,1001.62
2022-10-22T23:02:10.751Z,1001.58
2022-10-22T23:12:16.790Z,1001.39
2022-10-22T23:22:24.605Z,1001.36
2022-10-22T23:32:30.293Z,1001.18
2022-10-22T23:52:45.010Z,1001.28
